sensor_id;sensor_type;location;lat;lon;timestamp;temperature;humidity
70170;DHT22;57543;45.442;9.212;2023-09-19T00:02:26;22.34;83.39
70170;DHT22;57543;45.442;9.212;2023-09-19T00:05:34;22.36;83.00
70170;DHT22;57543;45.442;9.212;2023-09-19T00:08:38;22.29;83.05
70170;DHT22;57543;45.442;9.212;2023-09-19T00:11:42;22.31;82.80
70170;DHT22;57543;45.442;9.212;2023-09-19T00:14:47;22.39;82.49
70170;DHT22;57543;45.442;9.212;2023-09-19T00:17:51;22.29;82.72
70170;DHT22;57543;45.442;9.212;2023-09-19T00:20:58;22.25;82.81
70170;DHT22;57543;45.442;9.212;2023-09-19T00:24:02;22.22;82.73
70170;DHT22;57543;45.442;9.212;2023-09-19T00:27:06;22.27;82.54
70170;DHT22;57543;45.442;9.212;2023-09-19T00:30:12;22.18;82.72
70170;DHT22;57543;45.442;9.212;2023-09-19T00:33:28;22.17;82.56
70170;DHT22;57543;45.442;9.212;2023-09-19T00:36:34;21.98;82.87
70170;DHT22;57543;45.442;9.212;2023-09-19T00:39:39;22.00;83.13
70170;DHT22;57543;45.442;9.212;2023-09-19T00:42:45;21.96;82.96
70170;DHT22;57543;45.442;9.212;2023-09-19T00:45:53;22.02;82.96
70170;DHT22;57543;45.442;9.212;2023-09-19T00:48:58;22.00;83.02
70170;DHT22;57543;45.442;9.212;2023-09-19T00:52:03;22.04;82.95
70170;DHT22;57543;45.442;9.212;2023-09-19T00:55:11;22.12;82.76
70170;DHT22;57543;45.442;9.212;2023-09-19T00:58:19;22.14;82.69
70170;DHT22;57543;45.442;9.212;2023-09-19T01:01:26;22.11;82.60
70170;DHT22;57543;45.442;9.212;2023-09-19T01:04:32;22.08;82.94
70170;DHT22;57543;45.442;9.212;2023-09-19T01:07:38;22.05;82.89
70170;DHT22;57543;45.442;9.212;2023-09-19T01:10:52;21.98;83.55
70170;DHT22;57543;45.442;9.212;2023-09-19T01:17:07;22.01;83.52
70170;DHT22;57543;45.442;9.212;2023-09-19T01:20:26;22.07;83.54
70170;DHT22;57543;45.442;9.212;2023-09-19T01:23:59;22.01;83.97
70170;DHT22;57543;45.442;9.212;2023-09-19T01:27:30;21.97;84.10
70170;DHT22;57543;45.442;9.212;2023-09-19T01:30:40;21.96;84.34
70170;DHT22;57543;45.442;9.212;2023-09-19T01:34:00;22.00;84.49
70170;DHT22;57543;45.442;9.212;2023-09-19T01:37:04;22.04;84.41
70170;DHT22;57543;45.442;9.212;2023-09-19T01:40:10;22.05;84.28
70170;DHT22;57543;45.442;9.212;2023-09-19T01:43:34;22.07;84.40
70170;DHT22;57543;45.442;9.212;2023-09-19T01:46:41;22.18;84.18
70170;DHT22;57543;45.442;9.212;2023-09-19T01:49:55;22.07;84.27
70170;DHT22;57543;45.442;9.212;2023-09-19T01:53:23;22.11;84.21
70170;DHT22;57543;45.442;9.212;2023-09-19T01:56:31;22.17;84.12
70170;DHT22;57543;45.442;9.212;2023-09-19T01:59:54;22.14;84.11
70170;DHT22;57543;45.442;9.212;2023-09-19T02:03:00;22.05;84.78
70170;DHT22;57543;45.442;9.212;2023-09-19T02:06:05;22.14;84.48
70170;DHT22;57543;45.442;9.212;2023-09-19T02:09:15;22.18;84.28
70170;DHT22;57543;45.442;9.212;2023-09-19T02:12:19;22.07;84.42
70170;DHT22;57543;45.442;9.212;2023-09-19T02:15:23;22.04;84.74
70170;DHT22;57543;45.442;9.212;2023-09-19T02:18:26;21.96;84.96
70170;DHT22;57543;45.442;9.212;2023-09-19T02:21:31;21.91;85.00
70170;DHT22;57543;45.442;9.212;2023-09-19T02:24:36;21.84;85.11
70170;DHT22;57543;45.442;9.212;2023-09-19T02:27:40;21.79;85.27
70170;DHT22;57543;45.442;9.212;2023-09-19T02:30:47;21.77;85.21
70170;DHT22;57543;45.442;9.212;2023-09-19T02:33:52;21.69;85.39
70170;DHT22;57543;45.442;9.212;2023-09-19T02:36:55;21.69;85.34
70170;DHT22;57543;45.442;9.212;2023-09-19T02:40:00;21.67;85.29
70170;DHT22;57543;45.442;9.212;2023-09-19T02:43:04;21.70;85.03
70170;DHT22;57543;45.442;9.212;2023-09-19T02:46:08;21.70;84.84
70170;DHT22;57543;45.442;9.212;2023-09-19T02:49:12;21.63;85.11
70170;DHT22;57543;45.442;9.212;2023-09-19T02:52:22;21.59;85.21
70170;DHT22;57543;45.442;9.212;2023-09-19T02:55:28;21.55;85.36
70170;DHT22;57543;45.442;9.212;2023-09-19T02:58:32;21.59;85.23
70170;DHT22;57543;45.442;9.212;2023-09-19T03:01:42;21.60;85.09
70170;DHT22;57543;45.442;9.212;2023-09-19T03:04:46;21.57;84.95
70170;DHT22;57543;45.442;9.212;2023-09-19T03:07:50;21.53;85.09
70170;DHT22;57543;45.442;9.212;2023-09-19T03:10:54;21.56;85.11
70170;DHT22;57543;45.442;9.212;2023-09-19T03:13:58;21.59;85.12
70170;DHT22;57543;45.442;9.212;2023-09-19T03:17:02;21.62;85.06
70170;DHT22;57543;45.442;9.212;2023-09-19T03:20:09;21.69;84.82
70170;DHT22;57543;45.442;9.212;2023-09-19T03:23:16;21.70;84.76
70170;DHT22;57543;45.442;9.212;2023-09-19T03:26:21;21.56;84.80
70170;DHT22;57543;45.442;9.212;2023-09-19T03:29:25;21.50;85.12
70170;DHT22;57543;45.442;9.212;2023-09-19T03:32:29;21.55;85.11
70170;DHT22;57543;45.442;9.212;2023-09-19T03:35:33;21.62;84.93
70170;DHT22;57543;45.442;9.212;2023-09-19T03:38:38;21.65;84.84
70170;DHT22;57543;45.442;9.212;2023-09-19T03:41:42;21.62;84.60
70170;DHT22;57543;45.442;9.212;2023-09-19T03:44:46;21.66;84.54
70170;DHT22;57543;45.442;9.212;2023-09-19T03:47:52;21.70;84.42
70170;DHT22;57543;45.442;9.212;2023-09-19T03:50:58;21.70;84.33
70170;DHT22;57543;45.442;9.212;2023-09-19T03:54:04;21.72;84.17
70170;DHT22;57543;45.442;9.212;2023-09-19T03:57:07;21.56;84.48
70170;DHT22;57543;45.442;9.212;2023-09-19T04:00:12;21.62;84.40
70170;DHT22;57543;45.442;9.212;2023-09-19T04:03:18;21.55;84.21
70170;DHT22;57543;45.442;9.212;2023-09-19T04:06:24;21.53;84.14
70170;DHT22;57543;45.442;9.212;2023-09-19T04:09:28;21.43;83.94
70170;DHT22;57543;45.442;9.212;2023-09-19T04:12:31;21.31;84.29
70170;DHT22;57543;45.442;9.212;2023-09-19T04:15:43;21.29;84.16
70170;DHT22;57543;45.442;9.212;2023-09-19T04:18:50;21.34;84.03
70170;DHT22;57543;45.442;9.212;2023-09-19T04:21:53;21.29;83.90
70170;DHT22;57543;45.442;9.212;2023-09-19T04:24:57;21.20;84.32
70170;DHT22;57543;45.442;9.212;2023-09-19T04:28:00;21.20;84.15
70170;DHT22;57543;45.442;9.212;2023-09-19T04:31:04;21.21;84.19
70170;DHT22;57543;45.442;9.212;2023-09-19T04:34:07;21.24;83.94
70170;DHT22;57543;45.442;9.212;2023-09-19T04:37:11;21.24;83.76
70170;DHT22;57543;45.442;9.212;2023-09-19T04:40:17;21.29;83.54
70170;DHT22;57543;45.442;9.212;2023-09-19T04:43:21;21.27;83.23
70170;DHT22;57543;45.442;9.212;2023-09-19T04:46:24;21.24;83.22
70170;DHT22;57543;45.442;9.212;2023-09-19T04:49:28;21.29;82.82
70170;DHT22;57543;45.442;9.212;2023-09-19T04:52:32;21.17;82.70
70170;DHT22;57543;45.442;9.212;2023-09-19T04:55:35;21.17;82.61
70170;DHT22;57543;45.442;9.212;2023-09-19T04:58:39;21.12;82.53
70170;DHT22;57543;45.442;9.212;2023-09-19T05:01:42;21.11;82.45
70170;DHT22;57543;45.442;9.212;2023-09-19T05:04:49;21.10;82.24
70170;DHT22;57543;45.442;9.212;2023-09-19T05:07:55;21.12;82.30
70170;DHT22;57543;45.442;9.212;2023-09-19T05:11:01;21.05;82.35
70170;DHT22;57543;45.442;9.212;2023-09-19T05:14:05;20.80;83.04
70170;DHT22;57543;45.442;9.212;2023-09-19T05:17:08;20.86;83.11
70170;DHT22;57543;45.442;9.212;2023-09-19T05:20:12;20.90;82.93
70170;DHT22;57543;45.442;9.212;2023-09-19T05:23:28;20.87;82.72
70170;DHT22;57543;45.442;9.212;2023-09-19T05:26:32;20.88;82.77
70170;DHT22;57543;45.442;9.212;2023-09-19T05:29:38;20.80;82.80
70170;DHT22;57543;45.442;9.212;2023-09-19T05:32:42;20.75;83.08
70170;DHT22;57543;45.442;9.212;2023-09-19T05:35:49;20.83;82.98
70170;DHT22;57543;45.442;9.212;2023-09-19T05:38:53;20.88;82.55
70170;DHT22;57543;45.442;9.212;2023-09-19T05:41:57;20.63;83.20
70170;DHT22;57543;45.442;9.212;2023-09-19T05:45:04;20.52;83.79
70170;DHT22;57543;45.442;9.212;2023-09-19T05:48:11;20.63;83.58
70170;DHT22;57543;45.442;9.212;2023-09-19T05:51:16;20.70;83.15
70170;DHT22;57543;45.442;9.212;2023-09-19T05:54:21;20.72;82.99
70170;DHT22;57543;45.442;9.212;2023-09-19T05:57:24;20.46;83.53
70170;DHT22;57543;45.442;9.212;2023-09-19T06:00:28;20.67;83.39
70170;DHT22;57543;45.442;9.212;2023-09-19T06:03:32;20.81;82.83
70170;DHT22;57543;45.442;9.212;2023-09-19T06:06:36;20.86;82.64
70170;DHT22;57543;45.442;9.212;2023-09-19T06:09:42;20.94;82.35
70170;DHT22;57543;45.442;9.212;2023-09-19T06:12:46;20.87;82.33
70170;DHT22;57543;45.442;9.212;2023-09-19T06:15:50;20.97;82.34
70170;DHT22;57543;45.442;9.212;2023-09-19T06:18:54;21.03;82.17
70170;DHT22;57543;45.442;9.212;2023-09-19T06:21:59;20.73;82.83
70170;DHT22;57543;45.442;9.212;2023-09-19T06:25:06;20.76;83.32
70170;DHT22;57543;45.442;9.212;2023-09-19T06:28:09;20.88;82.95
70170;DHT22;57543;45.442;9.212;2023-09-19T06:31:15;20.94;82.62
70170;DHT22;57543;45.442;9.212;2023-09-19T06:34:19;20.86;82.56
70170;DHT22;57543;45.442;9.212;2023-09-19T06:37:22;20.97;82.39
70170;DHT22;57543;45.442;9.212;2023-09-19T06:40:31;20.87;82.42
70170;DHT22;57543;45.442;9.212;2023-09-19T06:43:35;20.80;82.95
70170;DHT22;57543;45.442;9.212;2023-09-19T06:46:42;20.83;82.85
70170;DHT22;57543;45.442;9.212;2023-09-19T06:49:50;20.80;82.64
70170;DHT22;57543;45.442;9.212;2023-09-19T06:52:56;20.79;82.89
70170;DHT22;57543;45.442;9.212;2023-09-19T06:56:03;20.86;82.83
70170;DHT22;57543;45.442;9.212;2023-09-19T06:59:07;20.86;83.00
70170;DHT22;57543;45.442;9.212;2023-09-19T07:02:11;20.86;82.97
70170;DHT22;57543;45.442;9.212;2023-09-19T07:05:15;20.95;83.03
70170;DHT22;57543;45.442;9.212;2023-09-19T07:08:22;21.00;82.27
70170;DHT22;57543;45.442;9.212;2023-09-19T07:11:26;21.14;82.31
70170;DHT22;57543;45.442;9.212;2023-09-19T07:14:35;21.15;81.97
70170;DHT22;57543;45.442;9.212;2023-09-19T07:17:39;21.31;81.93
70170;DHT22;57543;45.442;9.212;2023-09-19T07:20:43;21.45;81.46
70170;DHT22;57543;45.442;9.212;2023-09-19T07:23:53;21.50;80.66
70170;DHT22;57543;45.442;9.212;2023-09-19T07:26:56;21.63;80.34
70170;DHT22;57543;45.442;9.212;2023-09-19T07:30:00;21.87;79.78
70170;DHT22;57543;45.442;9.212;2023-09-19T07:33:05;21.82;79.97
70170;DHT22;57543;45.442;9.212;2023-09-19T07:36:12;22.21;78.75
70170;DHT22;57543;45.442;9.212;2023-09-19T07:39:19;22.48;78.00
70170;DHT22;57543;45.442;9.212;2023-09-19T07:42:25;22.67;77.41
70170;DHT22;57543;45.442;9.212;2023-09-19T07:45:29;22.87;76.89
70170;DHT22;57543;45.442;9.212;2023-09-19T07:48:36;23.01;76.45
70170;DHT22;57543;45.442;9.212;2023-09-19T07:51:46;23.28;75.88
70170;DHT22;57543;45.442;9.212;2023-09-19T07:54:50;23.52;74.55
70170;DHT22;57543;45.442;9.212;2023-09-19T07:57:54;23.73;73.97
70170;DHT22;57543;45.442;9.212;2023-09-19T08:01:05;24.00;72.30
70170;DHT22;57543;45.442;9.212;2023-09-19T08:04:09;24.00;73.80
70170;DHT22;57543;45.442;9.212;2023-09-19T08:07:16;24.48;72.10
70170;DHT22;57543;45.442;9.212;2023-09-19T08:10:20;24.88;70.03
70170;DHT22;57543;45.442;9.212;2023-09-19T08:13:25;25.34;68.44
70170;DHT22;57543;45.442;9.212;2023-09-19T08:16:29;25.48;67.96
70170;DHT22;57543;45.442;9.212;2023-09-19T08:19:34;25.94;66.62
70170;DHT22;57543;45.442;9.212;2023-09-19T08:22:40;26.38;66.02
70170;DHT22;57543;45.442;9.212;2023-09-19T08:25:47;26.76;65.09
70170;DHT22;57543;45.442;9.212;2023-09-19T08:28:50;27.01;64.47
70170;DHT22;57543;45.442;9.212;2023-09-19T08:31:58;27.12;64.13
70170;DHT22;57543;45.442;9.212;2023-09-19T08:35:01;27.41;63.61
70170;DHT22;57543;45.442;9.212;2023-09-19T08:38:05;27.63;63.66
70170;DHT22;57543;45.442;9.212;2023-09-19T08:41:09;27.72;62.86
70170;DHT22;57543;45.442;9.212;2023-09-19T08:44:15;27.46;63.34
70170;DHT22;57543;45.442;9.212;2023-09-19T08:47:45;27.63;63.09
70170;DHT22;57543;45.442;9.212;2023-09-19T08:50:52;27.62;62.50
70170;DHT22;57543;45.442;9.212;2023-09-19T08:54:03;27.72;62.45
70170;DHT22;57543;45.442;9.212;2023-09-19T08:57:10;27.85;62.25
70170;DHT22;57543;45.442;9.212;2023-09-19T09:00:17;27.85;61.82
70170;DHT22;57543;45.442;9.212;2023-09-19T09:03:25;27.93;61.14
70170;DHT22;57543;45.442;9.212;2023-09-19T09:06:29;28.11;60.42
70170;DHT22;57543;45.442;9.212;2023-09-19T09:09:36;28.27;60.34
70170;DHT22;57543;45.442;9.212;2023-09-19T09:12:41;28.44;59.99
70170;DHT22;57543;45.442;9.212;2023-09-19T09:15:48;28.66;59.83
70170;DHT22;57543;45.442;9.212;2023-09-19T09:18:53;28.75;59.13
70170;DHT22;57543;45.442;9.212;2023-09-19T09:22:11;28.76;58.31
70170;DHT22;57543;45.442;9.212;2023-09-19T09:25:14;28.76;58.41
70170;DHT22;57543;45.442;9.212;2023-09-19T09:28:22;28.70;58.61
70170;DHT22;57543;45.442;9.212;2023-09-19T09:31:26;28.83;58.45
70170;DHT22;57543;45.442;9.212;2023-09-19T09:34:33;28.83;58.72
70170;DHT22;57543;45.442;9.212;2023-09-19T09:37:37;28.94;58.43
70170;DHT22;57543;45.442;9.212;2023-09-19T09:40:49;29.03;57.73
70170;DHT22;57543;45.442;9.212;2023-09-19T09:44:18;29.11;58.04
70170;DHT22;57543;45.442;9.212;2023-09-19T09:47:41;29.17;58.25
70170;DHT22;57543;45.442;9.212;2023-09-19T09:50:47;29.25;57.74
70170;DHT22;57543;45.442;9.212;2023-09-19T09:54:12;29.34;57.53
70170;DHT22;57543;45.442;9.212;2023-09-19T09:57:20;29.28;57.56
70170;DHT22;57543;45.442;9.212;2023-09-19T10:00:26;29.00;58.48
70170;DHT22;57543;45.442;9.212;2023-09-19T10:03:48;28.86;58.01
70170;DHT22;57543;45.442;9.212;2023-09-19T10:06:54;29.00;58.48
70170;DHT22;57543;45.442;9.212;2023-09-19T10:10:01;29.00;57.87
70170;DHT22;57543;45.442;9.212;2023-09-19T10:13:14;28.80;60.31
70170;DHT22;57543;45.442;9.212;2023-09-19T10:16:21;29.02;58.45
70170;DHT22;57543;45.442;9.212;2023-09-19T10:19:33;29.02;58.64
70170;DHT22;57543;45.442;9.212;2023-09-19T10:22:39;29.04;57.57
70170;DHT22;57543;45.442;9.212;2023-09-19T10:25:46;29.10;56.99
70170;DHT22;57543;45.442;9.212;2023-09-19T10:28:51;29.17;57.39
70170;DHT22;57543;45.442;9.212;2023-09-19T10:31:58;29.31;57.09
70170;DHT22;57543;45.442;9.212;2023-09-19T10:35:02;29.42;56.73
70170;DHT22;57543;45.442;9.212;2023-09-19T10:38:10;29.39;56.79
70170;DHT22;57543;45.442;9.212;2023-09-19T10:41:16;29.30;56.99
70170;DHT22;57543;45.442;9.212;2023-09-19T10:44:25;29.49;56.57
70170;DHT22;57543;45.442;9.212;2023-09-19T10:47:28;29.56;56.96
70170;DHT22;57543;45.442;9.212;2023-09-19T10:50:44;29.58;56.01
70170;DHT22;57543;45.442;9.212;2023-09-19T10:53:55;29.76;55.02
70170;DHT22;57543;45.442;9.212;2023-09-19T10:57:06;29.94;55.21
70170;DHT22;57543;45.442;9.212;2023-09-19T11:00:16;30.16;54.84
70170;DHT22;57543;45.442;9.212;2023-09-19T11:03:27;30.34;54.32
70170;DHT22;57543;45.442;9.212;2023-09-19T11:06:38;30.42;54.82
70170;DHT22;57543;45.442;9.212;2023-09-19T11:12:57;30.93;52.09
70170;DHT22;57543;45.442;9.212;2023-09-19T11:16:02;30.97;52.16
70170;DHT22;57543;45.442;9.212;2023-09-19T11:19:11;31.51;50.75
70170;DHT22;57543;45.442;9.212;2023-09-19T11:22:17;32.65;48.75
70170;DHT22;57543;45.442;9.212;2023-09-19T11:28:46;35.92;41.77
70170;DHT22;57543;45.442;9.212;2023-09-19T11:31:50;36.56;40.09
70170;DHT22;57543;45.442;9.212;2023-09-19T11:35:06;36.90;39.89
70170;DHT22;57543;45.442;9.212;2023-09-19T11:38:17;36.68;39.67
70170;DHT22;57543;45.442;9.212;2023-09-19T11:44:33;37.47;38.94
70170;DHT22;57543;45.442;9.212;2023-09-19T11:47:38;37.60;38.56
70170;DHT22;57543;45.442;9.212;2023-09-19T11:50:42;36.95;40.10
70170;DHT22;57543;45.442;9.212;2023-09-19T11:53:47;36.22;41.64
70170;DHT22;57543;45.442;9.212;2023-09-19T11:56:54;34.89;42.49
70170;DHT22;57543;45.442;9.212;2023-09-19T11:59:58;34.10;43.98
70170;DHT22;57543;45.442;9.212;2023-09-19T12:03:10;33.68;45.23
70170;DHT22;57543;45.442;9.212;2023-09-19T12:06:18;33.04;46.20
70170;DHT22;57543;45.442;9.212;2023-09-19T12:09:25;32.44;47.37
70170;DHT22;57543;45.442;9.212;2023-09-19T12:12:29;32.30;47.07
70170;DHT22;57543;45.442;9.212;2023-09-19T12:15:37;31.70;47.16
70170;DHT22;57543;45.442;9.212;2023-09-19T12:18:44;31.63;47.84
70170;DHT22;57543;45.442;9.212;2023-09-19T12:21:59;31.39;50.14
70170;DHT22;57543;45.442;9.212;2023-09-19T12:25:09;31.27;50.80
70170;DHT22;57543;45.442;9.212;2023-09-19T12:28:14;31.45;49.70
70170;DHT22;57543;45.442;9.212;2023-09-19T12:31:20;31.31;50.85
70170;DHT22;57543;45.442;9.212;2023-09-19T12:34:27;31.33;48.73
70170;DHT22;57543;45.442;9.212;2023-09-19T12:37:31;31.44;49.25
70170;DHT22;57543;45.442;9.212;2023-09-19T12:40:40;31.53;48.80
70170;DHT22;57543;45.442;9.212;2023-09-19T12:43:46;31.62;49.77
70170;DHT22;57543;45.442;9.212;2023-09-19T12:46:59;31.73;49.21
70170;DHT22;57543;45.442;9.212;2023-09-19T12:50:14;31.57;50.30
70170;DHT22;57543;45.442;9.212;2023-09-19T12:53:29;31.66;48.47
70170;DHT22;57543;45.442;9.212;2023-09-19T12:56:39;31.68;48.70
70170;DHT22;57543;45.442;9.212;2023-09-19T12:59:45;31.75;47.80
70170;DHT22;57543;45.442;9.212;2023-09-19T13:06:35;31.63;48.94
70170;DHT22;57543;45.442;9.212;2023-09-19T13:10:03;31.69;47.22
70170;DHT22;57543;45.442;9.212;2023-09-19T13:13:23;31.55;48.60
70170;DHT22;57543;45.442;9.212;2023-09-19T13:16:52;31.76;47.71
70170;DHT22;57543;45.442;9.212;2023-09-19T13:19:57;31.86;48.01
70170;DHT22;57543;45.442;9.212;2023-09-19T13:23:01;31.94;47.86
70170;DHT22;57543;45.442;9.212;2023-09-19T13:26:13;31.89;46.81
70170;DHT22;57543;45.442;9.212;2023-09-19T13:29:16;31.99;46.63
70170;DHT22;57543;45.442;9.212;2023-09-19T13:32:22;31.97;46.13
70170;DHT22;57543;45.442;9.212;2023-09-19T13:35:29;31.99;45.52
70170;DHT22;57543;45.442;9.212;2023-09-19T13:38:32;32.07;46.14
70170;DHT22;57543;45.442;9.212;2023-09-19T13:41:40;32.09;46.75
70170;DHT22;57543;45.442;9.212;2023-09-19T13:44:52;32.20;46.30
70170;DHT22;57543;45.442;9.212;2023-09-19T13:47:59;32.28;45.82
70170;DHT22;57543;45.442;9.212;2023-09-19T13:51:06;32.12;46.35
70170;DHT22;57543;45.442;9.212;2023-09-19T13:54:12;32.06;46.38
70170;DHT22;57543;45.442;9.212;2023-09-19T13:57:16;32.14;46.26
70170;DHT22;57543;45.442;9.212;2023-09-19T14:00:23;32.24;45.88
70170;DHT22;57543;45.442;9.212;2023-09-19T14:03:27;31.89;46.26
70170;DHT22;57543;45.442;9.212;2023-09-19T14:06:32;32.05;47.03
70170;DHT22;57543;45.442;9.212;2023-09-19T14:09:37;32.17;45.60
70170;DHT22;57543;45.442;9.212;2023-09-19T14:12:44;32.24;45.26
70170;DHT22;57543;45.442;9.212;2023-09-19T14:15:54;32.03;45.33
70170;DHT22;57543;45.442;9.212;2023-09-19T14:19:06;32.17;45.49
70170;DHT22;57543;45.442;9.212;2023-09-19T14:22:11;32.19;45.23
70170;DHT22;57543;45.442;9.212;2023-09-19T14:25:16;32.10;45.62
70170;DHT22;57543;45.442;9.212;2023-09-19T14:28:22;32.16;46.08
70170;DHT22;57543;45.442;9.212;2023-09-19T14:31:28;32.14;45.96
70170;DHT22;57543;45.442;9.212;2023-09-19T14:34:33;32.12;45.83
70170;DHT22;57543;45.442;9.212;2023-09-19T14:37:39;32.17;45.64
70170;DHT22;57543;45.442;9.212;2023-09-19T14:40:43;32.20;45.82
70170;DHT22;57543;45.442;9.212;2023-09-19T14:43:48;32.16;46.15
70170;DHT22;57543;45.442;9.212;2023-09-19T14:46:52;32.09;46.94
70170;DHT22;57543;45.442;9.212;2023-09-19T14:50:02;32.00;46.67
70170;DHT22;57543;45.442;9.212;2023-09-19T14:53:10;32.03;45.71
70170;DHT22;57543;45.442;9.212;2023-09-19T14:56:16;32.06;46.30
70170;DHT22;57543;45.442;9.212;2023-09-19T14:59:24;32.02;46.45
70170;DHT22;57543;45.442;9.212;2023-09-19T15:02:28;31.86;47.49
70170;DHT22;57543;45.442;9.212;2023-09-19T15:05:33;31.93;47.06
70170;DHT22;57543;45.442;9.212;2023-09-19T15:08:37;31.93;46.74
70170;DHT22;57543;45.442;9.212;2023-09-19T15:11:46;31.79;47.49
70170;DHT22;57543;45.442;9.212;2023-09-19T15:14:50;31.80;46.94
70170;DHT22;57543;45.442;9.212;2023-09-19T15:17:53;31.82;46.94
70170;DHT22;57543;45.442;9.212;2023-09-19T15:21:00;31.80;47.27
70170;DHT22;57543;45.442;9.212;2023-09-19T15:24:04;31.76;47.69
70170;DHT22;57543;45.442;9.212;2023-09-19T15:27:11;31.70;47.30
70170;DHT22;57543;45.442;9.212;2023-09-19T15:30:20;31.65;46.69
70170;DHT22;57543;45.442;9.212;2023-09-19T15:33:31;31.37;46.94
70170;DHT22;57543;45.442;9.212;2023-09-19T15:36:37;31.44;47.10
70170;DHT22;57543;45.442;9.212;2023-09-19T15:39:42;31.45;46.98
70170;DHT22;57543;45.442;9.212;2023-09-19T15:42:48;31.44;46.96
70170;DHT22;57543;45.442;9.212;2023-09-19T15:45:51;31.39;46.92
70170;DHT22;57543;45.442;9.212;2023-09-19T15:48:56;31.27;47.05
70170;DHT22;57543;45.442;9.212;2023-09-19T15:52:05;31.20;47.34
70170;DHT22;57543;45.442;9.212;2023-09-19T15:55:09;31.14;47.37
70170;DHT22;57543;45.442;9.212;2023-09-19T15:58:13;31.08;47.52
70170;DHT22;57543;45.442;9.212;2023-09-19T16:01:17;30.93;47.84
70170;DHT22;57543;45.442;9.212;2023-09-19T16:04:21;30.62;48.41
70170;DHT22;57543;45.442;9.212;2023-09-19T16:07:28;30.35;48.52
70170;DHT22;57543;45.442;9.212;2023-09-19T16:10:35;30.35;48.31
70170;DHT22;57543;45.442;9.212;2023-09-19T16:13:43;30.41;48.24
70170;DHT22;57543;45.442;9.212;2023-09-19T16:16:48;30.39;48.24
70170;DHT22;57543;45.442;9.212;2023-09-19T16:19:54;30.38;48.52
70170;DHT22;57543;45.442;9.212;2023-09-19T16:22:58;30.34;48.73
70170;DHT22;57543;45.442;9.212;2023-09-19T16:26:08;30.17;49.00
70170;DHT22;57543;45.442;9.212;2023-09-19T16:29:18;30.14;49.18
70170;DHT22;57543;45.442;9.212;2023-09-19T16:32:28;30.07;49.24
70170;DHT22;57543;45.442;9.212;2023-09-19T16:35:36;29.82;49.09
70170;DHT22;57543;45.442;9.212;2023-09-19T16:38:42;29.75;49.64
70170;DHT22;57543;45.442;9.212;2023-09-19T16:41:46;29.63;49.44
70170;DHT22;57543;45.442;9.212;2023-09-19T16:44:49;29.47;49.42
70170;DHT22;57543;45.442;9.212;2023-09-19T16:48:04;29.34;49.70
70170;DHT22;57543;45.442;9.212;2023-09-19T16:51:14;29.21;50.03
70170;DHT22;57543;45.442;9.212;2023-09-19T16:54:18;29.15;49.83
70170;DHT22;57543;45.442;9.212;2023-09-19T16:57:22;28.92;49.98
70170;DHT22;57543;45.442;9.212;2023-09-19T17:00:26;28.86;50.48
70170;DHT22;57543;45.442;9.212;2023-09-19T17:03:32;28.80;50.45
70170;DHT22;57543;45.442;9.212;2023-09-19T17:06:37;28.76;50.66
70170;DHT22;57543;45.442;9.212;2023-09-19T17:09:43;28.68;50.63
70170;DHT22;57543;45.442;9.212;2023-09-19T17:12:47;28.65;51.03
70170;DHT22;57543;45.442;9.212;2023-09-19T17:16:00;28.58;51.23
70170;DHT22;57543;45.442;9.212;2023-09-19T17:19:03;28.45;51.64
70170;DHT22;57543;45.442;9.212;2023-09-19T17:22:12;28.27;52.57
70170;DHT22;57543;45.442;9.212;2023-09-19T17:25:16;28.25;52.90
70170;DHT22;57543;45.442;9.212;2023-09-19T17:28:22;28.06;53.63
70170;DHT22;57543;45.442;9.212;2023-09-19T17:31:28;27.89;54.44
70170;DHT22;57543;45.442;9.212;2023-09-19T17:34:39;27.85;55.09
70170;DHT22;57543;45.442;9.212;2023-09-19T17:37:46;27.83;54.83
70170;DHT22;57543;45.442;9.212;2023-09-19T17:40:49;27.62;55.41
70170;DHT22;57543;45.442;9.212;2023-09-19T17:43:59;27.55;55.74
70170;DHT22;57543;45.442;9.212;2023-09-19T17:47:07;27.53;55.91
70170;DHT22;57543;45.442;9.212;2023-09-19T17:50:20;27.52;56.18
70170;DHT22;57543;45.442;9.212;2023-09-19T17:53:24;27.49;56.59
70170;DHT22;57543;45.442;9.212;2023-09-19T17:56:28;27.45;57.29
70170;DHT22;57543;45.442;9.212;2023-09-19T17:59:32;27.35;57.99
70170;DHT22;57543;45.442;9.212;2023-09-19T18:02:36;27.23;58.44
70170;DHT22;57543;45.442;9.212;2023-09-19T18:05:44;27.10;58.89
70170;DHT22;57543;45.442;9.212;2023-09-19T18:08:56;27.03;59.29
70170;DHT22;57543;45.442;9.212;2023-09-19T18:12:02;26.93;59.95
70170;DHT22;57543;45.442;9.212;2023-09-19T18:15:08;26.84;60.40
70170;DHT22;57543;45.442;9.212;2023-09-19T18:18:18;26.79;60.10
70170;DHT22;57543;45.442;9.212;2023-09-19T18:21:22;26.75;59.97
70170;DHT22;57543;45.442;9.212;2023-09-19T18:24:27;26.72;59.95
70170;DHT22;57543;45.442;9.212;2023-09-19T18:27:31;26.68;60.65
70170;DHT22;57543;45.442;9.212;2023-09-19T18:30:36;26.71;60.65
70170;DHT22;57543;45.442;9.212;2023-09-19T18:33:42;26.63;61.04
70170;DHT22;57543;45.442;9.212;2023-09-19T18:36:47;26.53;61.88
70170;DHT22;57543;45.442;9.212;2023-09-19T18:39:53;26.41;62.53
70170;DHT22;57543;45.442;9.212;2023-09-19T18:42:58;26.39;62.38
70170;DHT22;57543;45.442;9.212;2023-09-19T18:46:06;26.41;62.48
70170;DHT22;57543;45.442;9.212;2023-09-19T18:49:18;26.35;63.16
70170;DHT22;57543;45.442;9.212;2023-09-19T18:52:22;26.34;63.28
70170;DHT22;57543;45.442;9.212;2023-09-19T18:55:35;26.24;63.15
70170;DHT22;57543;45.442;9.212;2023-09-19T18:58:39;26.22;63.23
70170;DHT22;57543;45.442;9.212;2023-09-19T19:01:42;26.20;63.70
70170;DHT22;57543;45.442;9.212;2023-09-19T19:04:50;26.16;63.85
70170;DHT22;57543;45.442;9.212;2023-09-19T19:07:54;26.10;63.90
70170;DHT22;57543;45.442;9.212;2023-09-19T19:11:07;26.07;63.66
70170;DHT22;57543;45.442;9.212;2023-09-19T19:14:12;26.04;63.73
70170;DHT22;57543;45.442;9.212;2023-09-19T19:17:19;26.05;64.07
70170;DHT22;57543;45.442;9.212;2023-09-19T19:20:24;26.08;64.39
70170;DHT22;57543;45.442;9.212;2023-09-19T19:23:28;26.03;64.90
70170;DHT22;57543;45.442;9.212;2023-09-19T19:26:34;26.00;65.16
70170;DHT22;57543;45.442;9.212;2023-09-19T19:29:41;25.84;66.07
70170;DHT22;57543;45.442;9.212;2023-09-19T19:32:46;25.63;66.82
70170;DHT22;57543;45.442;9.212;2023-09-19T19:36:03;25.69;66.41
70170;DHT22;57543;45.442;9.212;2023-09-19T19:39:10;25.82;65.74
70170;DHT22;57543;45.442;9.212;2023-09-19T19:42:18;25.69;65.95
70170;DHT22;57543;45.442;9.212;2023-09-19T19:45:22;25.59;66.45
70170;DHT22;57543;45.442;9.212;2023-09-19T19:48:26;25.55;66.43
70170;DHT22;57543;45.442;9.212;2023-09-19T19:51:32;25.53;66.26
70170;DHT22;57543;45.442;9.212;2023-09-19T19:54:38;25.53;66.41
70170;DHT22;57543;45.442;9.212;2023-09-19T19:57:42;25.55;66.70